NCAR-RAP Real-Time Weather Data

Output produced by METARs form (20 January 2020  08:59 UTC)
found at http://weather.rap.ucar.edu/surface/
 
RJCB 200848Z 19002KT 1000 R35/0550VP2000U BR FEW003 BKN004 M05/M06 Q1006 RMK 1ST003 5ST004 A2971
 
RJCC 200837Z 34011KT 5000 -SHSN FEW003 SCT012 BKN060 M01/M02 Q1008 RMK 1ST003 3ST012 7CU060 A2977
 
RJCH 200800Z 29014KT 9999 FEW010 SCT025 BKN150 01/M04 Q1009
 
RJCK 200800Z 01009KT 9999 FEW010 SCT015 BKN025 M01/M03 Q1005
 
RJCM 200837Z 34004KT 3200 -SHSN FEW010 SCT025 BKN035 M03/M04 Q1007 RMK 1ST010 3CU025 5CU035 A2974
 
RJCN 200830Z 02010KT 3200 -SHSN FEW005 SCT009 BKN012 M02/M03 Q1005 RMK 1ST005 3ST009 6ST012 A2969
 
RJEC 200823Z 21003KT 3200 -SHSN FEW005 SCT020 BKN030 M05/M06 Q1006 RMK 1ST005 4CU020 6CU030 A2972
 
RJSA 200800Z 24012KT 9000 -SHSN FEW004 SCT020 BKN040 M01/M04 Q1010
 
RJSC 200800Z 19003KT 170V230 9999 FEW020 SCT030 BKN050 04/M00 Q1012
 
RJSF 200800Z 03005KT 360V070 9999 FEW015 SCT070 03/03 Q1011
 
RJSI 200800Z 29005KT 250V320 9999 FEW010 SCT030 BKN/// 03/M04 Q1011
 
RJSK 200800Z 30007KT 9999 FEW020 BKN035 BKN100 02/M01 Q1011
 
RJSM 200800Z 28013KT 9999 FEW015 SCT030 02/M04 Q1010
 
RJSN 200800Z 20008KT 7000 -SHRA FEW006 SCT008 BKN020 04/02 Q1013
 
RJSR 200800Z 25004KT 190V280 9999 -SHSN FEW010 SCT020 BKN040 01/M02 Q1011
 
RJSS 200800Z 28007KT 9999 FEW020 SCT050 BKN060 07/M04 Q1012
 
RJSY 200800Z 24010KT 9999 -SHRA FEW010 SCT015 BKN025 04/01 Q1012